Aérodrome :
LOGIN :

S'inscrire | Disclaimer

   EN    FR    IT 

 










Légende :    VFR   VFR Marginal   IFR   IFR Intensif   IFR Très Intensif
Visi : 
Plafond : 
>= 8 km
>= 3000ft
5 à 8 km
1000 à 3000 ft
1500m à 5 km
500 à 1000 ft
800 à 1500m
200 à 500 ft
< 800m
< 200 ft
Symboles :   Orages  Brouillard  Fortes neiges  Fortes précipitations  Vent > 20 kt
SIGMETs :   Divers  Orages  Givrage  Turbulence  Onde Orograph.  Cendres Volcan.






- Altitude de l'aérodrome : 72 ft
- Code IATA : UDE


EHVK - Volkel Airbase

DERNIER METAR :
  • 280455Z AUTO 21006KT 7000 BR OVC026 12/11 Q1007 WHT

METARs EXPIRÉS :
  • 280431Z AUTO 21006KT 180V240 7000 BR BKN027 OVC032 12/11 Q1007 WHT
  • 280425Z AUTO 21007KT 6000 -DZ BKN027 OVC031 12/11 Q1007 REDZ WHT
  • 280402Z AUTO 20004KT 160V240 7000 -RA SCT029 OVC036 12/10 Q1007 WHT
  • 280355Z AUTO 19004KT 9999 FEW024 OVC031 12/10 Q1007 BLU
  • 280325Z AUTO 19004KT 160V220 9999 SCT029 OVC035 12/10 Q1007 BLU
  • 280255Z AUTO 23004KT 9999 OVC034 12/11 Q1007 BLU
  • 280225Z AUTO 24004KT 9999 SCT035 BKN039 OVC044 12/11 Q1007 BLU

TAF TAF EHVK
Valide du 28 à 01h jusqu'au 28 à 13h UTC


280024Z 2801/2813 VRB02KT 9999 FEW035 BKN045
PROB40
TEMPO 2804/2810 4500 -RA SCT016 BKN028
BECMG 2808/2810 19007KT BKN016 OVC025
BECMG 2810/2812 4800 BR SCT008 BKN012 OVC017
TEMPO 2811/2813 3500 -RADZ SCT005 BKN008 OVC012



MET'MAP, la Météo Aéronautique d'un coup d'oeil ! - Copyright ORBIFLY Décembre 2007 - Disclaimer

ORBIFLY MET'MAP TEAM :

Programmation & Développement : Alexandra Zaïnal
Sur une idée originale de : Baudouin d'Aumeries
Assistance à la programmation : Marc-Olivier Méhu
Soutien technique & logistique : Manuel Goepfert

Contact : metmap@orbifly.com




SOURCES & CREDITS :

   NOAA